sensor_id;sensor_type;location;lat;lon;timestamp;P1;durP1;ratioP1;P2;durP2;ratioP2
19519;SDS011;9904;52.246;20.898;2023-05-13T00:01:14;14.60;;;7.23;;
19519;SDS011;9904;52.246;20.898;2023-05-13T00:03:42;17.70;;;7.27;;
19519;SDS011;9904;52.246;20.898;2023-05-13T00:06:09;18.07;;;7.67;;
19519;SDS011;9904;52.246;20.898;2023-05-13T00:08:36;16.87;;;7.33;;
19519;SDS011;9904;52.246;20.898;2023-05-13T00:11:02;16.07;;;7.33;;
19519;SDS011;9904;52.246;20.898;2023-05-13T00:13:29;22.87;;;6.93;;
19519;SDS011;9904;52.246;20.898;2023-05-13T00:15:56;21.90;;;7.53;;
19519;SDS011;9904;52.246;20.898;2023-05-13T00:18:22;18.23;;;7.17;;
19519;SDS011;9904;52.246;20.898;2023-05-13T00:20:49;19.80;;;7.80;;
19519;SDS011;9904;52.246;20.898;2023-05-13T00:23:16;22.63;;;7.80;;
19519;SDS011;9904;52.246;20.898;2023-05-13T00:25:42;16.07;;;7.87;;
19519;SDS011;9904;52.246;20.898;2023-05-13T00:28:11;16.50;;;7.47;;
19519;SDS011;9904;52.246;20.898;2023-05-13T00:30:43;19.13;;;8.23;;
19519;SDS011;9904;52.246;20.898;2023-05-13T00:33:10;20.00;;;8.20;;
19519;SDS011;9904;52.246;20.898;2023-05-13T00:35:37;18.40;;;7.90;;
19519;SDS011;9904;52.246;20.898;2023-05-13T00:38:04;18.80;;;7.43;;
19519;SDS011;9904;52.246;20.898;2023-05-13T00:40:30;17.73;;;8.17;;
19519;SDS011;9904;52.246;20.898;2023-05-13T00:42:57;16.53;;;7.80;;
19519;SDS011;9904;52.246;20.898;2023-05-13T00:45:23;17.50;;;8.23;;
19519;SDS011;9904;52.246;20.898;2023-05-13T00:47:50;21.97;;;7.47;;
19519;SDS011;9904;52.246;20.898;2023-05-13T00:50:17;18.67;;;7.00;;
19519;SDS011;9904;52.246;20.898;2023-05-13T00:52:43;15.83;;;7.13;;
19519;SDS011;9904;52.246;20.898;2023-05-13T00:55:10;21.47;;;7.70;;
19519;SDS011;9904;52.246;20.898;2023-05-13T00:57:37;18.80;;;8.23;;
19519;SDS011;9904;52.246;20.898;2023-05-13T01:00:05;18.87;;;7.80;;
19519;SDS011;9904;52.246;20.898;2023-05-13T01:05:29;18.50;;;8.53;;
19519;SDS011;9904;52.246;20.898;2023-05-13T01:08:14;16.43;;;8.20;;
19519;SDS011;9904;52.246;20.898;2023-05-13T01:10:46;17.00;;;7.60;;
19519;SDS011;9904;52.246;20.898;2023-05-13T01:13:25;14.27;;;8.33;;
19519;SDS011;9904;52.246;20.898;2023-05-13T01:15:59;20.07;;;8.00;;
19519;SDS011;9904;52.246;20.898;2023-05-13T01:18:33;26.10;;;8.57;;
19519;SDS011;9904;52.246;20.898;2023-05-13T01:21:02;23.10;;;8.33;;
19519;SDS011;9904;52.246;20.898;2023-05-13T01:23:30;21.40;;;8.70;;
19519;SDS011;9904;52.246;20.898;2023-05-13T01:25:57;15.83;;;8.10;;
19519;SDS011;9904;52.246;20.898;2023-05-13T01:28:23;16.70;;;8.40;;
19519;SDS011;9904;52.246;20.898;2023-05-13T01:30:50;14.13;;;7.93;;
19519;SDS011;9904;52.246;20.898;2023-05-13T01:33:16;22.13;;;8.87;;
19519;SDS011;9904;52.246;20.898;2023-05-13T01:35:44;17.27;;;7.60;;
19519;SDS011;9904;52.246;20.898;2023-05-13T01:38:12;20.60;;;8.20;;
19519;SDS011;9904;52.246;20.898;2023-05-13T01:40:40;20.03;;;8.13;;
19519;SDS011;9904;52.246;20.898;2023-05-13T01:43:07;23.53;;;8.70;;
19519;SDS011;9904;52.246;20.898;2023-05-13T01:45:33;17.53;;;8.67;;
19519;SDS011;9904;52.246;20.898;2023-05-13T01:48:00;24.30;;;8.43;;
19519;SDS011;9904;52.246;20.898;2023-05-13T01:50:26;18.97;;;8.30;;
19519;SDS011;9904;52.246;20.898;2023-05-13T01:52:53;21.70;;;7.80;;
19519;SDS011;9904;52.246;20.898;2023-05-13T01:55:20;19.57;;;8.07;;
19519;SDS011;9904;52.246;20.898;2023-05-13T01:57:46;18.70;;;8.67;;
19519;SDS011;9904;52.246;20.898;2023-05-13T02:00:13;19.83;;;9.33;;
19519;SDS011;9904;52.246;20.898;2023-05-13T02:02:40;19.97;;;9.10;;
19519;SDS011;9904;52.246;20.898;2023-05-13T02:05:07;23.30;;;8.80;;
19519;SDS011;9904;52.246;20.898;2023-05-13T02:07:34;19.33;;;8.00;;
19519;SDS011;9904;52.246;20.898;2023-05-13T02:10:00;19.57;;;8.37;;
19519;SDS011;9904;52.246;20.898;2023-05-13T02:12:27;17.27;;;8.43;;
19519;SDS011;9904;52.246;20.898;2023-05-13T02:14:54;25.10;;;8.73;;
19519;SDS011;9904;52.246;20.898;2023-05-13T02:17:20;22.07;;;9.33;;
19519;SDS011;9904;52.246;20.898;2023-05-13T02:19:47;27.17;;;10.10;;
19519;SDS011;9904;52.246;20.898;2023-05-13T02:22:14;25.70;;;9.53;;
19519;SDS011;9904;52.246;20.898;2023-05-13T02:24:41;21.33;;;9.10;;
19519;SDS011;9904;52.246;20.898;2023-05-13T02:27:08;21.57;;;9.10;;
19519;SDS011;9904;52.246;20.898;2023-05-13T02:29:37;19.77;;;8.57;;
19519;SDS011;9904;52.246;20.898;2023-05-13T02:32:04;25.47;;;8.97;;
19519;SDS011;9904;52.246;20.898;2023-05-13T02:34:31;21.33;;;8.60;;
19519;SDS011;9904;52.246;20.898;2023-05-13T02:36:57;17.17;;;8.23;;
19519;SDS011;9904;52.246;20.898;2023-05-13T02:39:24;18.73;;;8.93;;
19519;SDS011;9904;52.246;20.898;2023-05-13T02:41:50;19.33;;;8.80;;
19519;SDS011;9904;52.246;20.898;2023-05-13T02:44:17;19.33;;;9.50;;
19519;SDS011;9904;52.246;20.898;2023-05-13T02:46:43;20.17;;;8.50;;
19519;SDS011;9904;52.246;20.898;2023-05-13T02:49:10;19.63;;;8.50;;
19519;SDS011;9904;52.246;20.898;2023-05-13T02:51:37;19.70;;;9.10;;
19519;SDS011;9904;52.246;20.898;2023-05-13T02:54:03;24.83;;;9.50;;
19519;SDS011;9904;52.246;20.898;2023-05-13T02:56:31;19.50;;;8.77;;
19519;SDS011;9904;52.246;20.898;2023-05-13T02:58:57;27.60;;;9.93;;
19519;SDS011;9904;52.246;20.898;2023-05-13T03:01:24;20.20;;;9.47;;
19519;SDS011;9904;52.246;20.898;2023-05-13T03:03:52;15.03;;;7.83;;
19519;SDS011;9904;52.246;20.898;2023-05-13T03:06:18;20.77;;;8.97;;
19519;SDS011;9904;52.246;20.898;2023-05-13T03:08:45;21.03;;;9.43;;
19519;SDS011;9904;52.246;20.898;2023-05-13T03:11:11;25.37;;;9.77;;
19519;SDS011;9904;52.246;20.898;2023-05-13T03:13:38;27.90;;;10.23;;
19519;SDS011;9904;52.246;20.898;2023-05-13T03:16:04;29.23;;;9.70;;
19519;SDS011;9904;52.246;20.898;2023-05-13T03:18:31;23.30;;;9.70;;
19519;SDS011;9904;52.246;20.898;2023-05-13T03:20:58;22.00;;;8.90;;
19519;SDS011;9904;52.246;20.898;2023-05-13T03:23:24;20.97;;;10.03;;
19519;SDS011;9904;52.246;20.898;2023-05-13T03:25:51;24.80;;;9.93;;
19519;SDS011;9904;52.246;20.898;2023-05-13T03:28:17;23.80;;;10.60;;
19519;SDS011;9904;52.246;20.898;2023-05-13T03:30:44;29.20;;;10.30;;
19519;SDS011;9904;52.246;20.898;2023-05-13T03:33:10;19.30;;;9.53;;
19519;SDS011;9904;52.246;20.898;2023-05-13T03:35:37;23.60;;;9.67;;
19519;SDS011;9904;52.246;20.898;2023-05-13T03:38:04;32.47;;;10.47;;
19519;SDS011;9904;52.246;20.898;2023-05-13T03:40:30;21.90;;;10.30;;
19519;SDS011;9904;52.246;20.898;2023-05-13T03:42:57;18.50;;;9.93;;
19519;SDS011;9904;52.246;20.898;2023-05-13T03:45:23;26.87;;;10.17;;
19519;SDS011;9904;52.246;20.898;2023-05-13T03:47:50;24.10;;;10.37;;
19519;SDS011;9904;52.246;20.898;2023-05-13T03:50:16;22.53;;;10.40;;
19519;SDS011;9904;52.246;20.898;2023-05-13T03:52:43;25.87;;;10.80;;
19519;SDS011;9904;52.246;20.898;2023-05-13T03:55:12;21.23;;;10.33;;
19519;SDS011;9904;52.246;20.898;2023-05-13T03:57:45;23.40;;;10.00;;
19519;SDS011;9904;52.246;20.898;2023-05-13T04:00:13;24.53;;;11.57;;
19519;SDS011;9904;52.246;20.898;2023-05-13T04:02:40;29.33;;;10.60;;
19519;SDS011;9904;52.246;20.898;2023-05-13T04:05:07;22.10;;;11.53;;
19519;SDS011;9904;52.246;20.898;2023-05-13T04:07:34;25.13;;;11.07;;
19519;SDS011;9904;52.246;20.898;2023-05-13T04:10:01;20.87;;;10.83;;
19519;SDS011;9904;52.246;20.898;2023-05-13T04:12:28;23.07;;;11.53;;
19519;SDS011;9904;52.246;20.898;2023-05-13T04:14:56;26.87;;;10.70;;
19519;SDS011;9904;52.246;20.898;2023-05-13T04:17:22;28.37;;;12.07;;
19519;SDS011;9904;52.246;20.898;2023-05-13T04:19:52;24.33;;;11.57;;
19519;SDS011;9904;52.246;20.898;2023-05-13T04:22:19;20.77;;;10.80;;
19519;SDS011;9904;52.246;20.898;2023-05-13T04:24:46;29.43;;;11.67;;
19519;SDS011;9904;52.246;20.898;2023-05-13T04:27:12;24.00;;;11.17;;
19519;SDS011;9904;52.246;20.898;2023-05-13T04:29:39;28.67;;;11.73;;
19519;SDS011;9904;52.246;20.898;2023-05-13T04:32:06;33.67;;;12.00;;
19519;SDS011;9904;52.246;20.898;2023-05-13T04:34:33;25.37;;;11.20;;
19519;SDS011;9904;52.246;20.898;2023-05-13T04:36:59;27.10;;;11.47;;
19519;SDS011;9904;52.246;20.898;2023-05-13T04:39:26;21.87;;;11.27;;
19519;SDS011;9904;52.246;20.898;2023-05-13T04:41:52;26.77;;;11.20;;
19519;SDS011;9904;52.246;20.898;2023-05-13T04:44:19;22.07;;;10.93;;
19519;SDS011;9904;52.246;20.898;2023-05-13T04:46:45;20.73;;;10.97;;
19519;SDS011;9904;52.246;20.898;2023-05-13T04:49:12;26.33;;;11.67;;
19519;SDS011;9904;52.246;20.898;2023-05-13T04:51:39;24.93;;;12.07;;
19519;SDS011;9904;52.246;20.898;2023-05-13T04:54:06;23.57;;;10.90;;
19519;SDS011;9904;52.246;20.898;2023-05-13T04:56:32;26.73;;;10.50;;
19519;SDS011;9904;52.246;20.898;2023-05-13T04:58:59;27.60;;;11.60;;
19519;SDS011;9904;52.246;20.898;2023-05-13T05:01:25;25.10;;;11.13;;
19519;SDS011;9904;52.246;20.898;2023-05-13T05:03:52;24.70;;;11.13;;
19519;SDS011;9904;52.246;20.898;2023-05-13T05:06:18;24.93;;;10.67;;
19519;SDS011;9904;52.246;20.898;2023-05-13T05:08:46;27.87;;;11.93;;
19519;SDS011;9904;52.246;20.898;2023-05-13T05:11:14;20.90;;;10.70;;
19519;SDS011;9904;52.246;20.898;2023-05-13T05:13:40;24.77;;;12.53;;
19519;SDS011;9904;52.246;20.898;2023-05-13T05:16:07;24.30;;;11.27;;
19519;SDS011;9904;52.246;20.898;2023-05-13T05:18:34;29.27;;;11.47;;
19519;SDS011;9904;52.246;20.898;2023-05-13T05:21:06;20.00;;;10.07;;
19519;SDS011;9904;52.246;20.898;2023-05-13T05:23:33;21.73;;;11.17;;
19519;SDS011;9904;52.246;20.898;2023-05-13T05:25:59;22.57;;;11.50;;
19519;SDS011;9904;52.246;20.898;2023-05-13T05:28:37;27.70;;;11.80;;
19519;SDS011;9904;52.246;20.898;2023-05-13T05:31:05;23.17;;;12.03;;
19519;SDS011;9904;52.246;20.898;2023-05-13T05:33:32;23.07;;;11.60;;
19519;SDS011;9904;52.246;20.898;2023-05-13T05:35:58;26.57;;;12.47;;
19519;SDS011;9904;52.246;20.898;2023-05-13T05:38:25;26.10;;;11.70;;
19519;SDS011;9904;52.246;20.898;2023-05-13T05:40:51;23.40;;;11.53;;
19519;SDS011;9904;52.246;20.898;2023-05-13T05:43:18;21.27;;;10.97;;
19519;SDS011;9904;52.246;20.898;2023-05-13T05:45:45;22.43;;;10.97;;
19519;SDS011;9904;52.246;20.898;2023-05-13T05:48:11;24.47;;;10.53;;
19519;SDS011;9904;52.246;20.898;2023-05-13T05:50:39;24.97;;;10.47;;
19519;SDS011;9904;52.246;20.898;2023-05-13T05:53:06;22.70;;;10.80;;
19519;SDS011;9904;52.246;20.898;2023-05-13T05:55:33;18.40;;;9.80;;
19519;SDS011;9904;52.246;20.898;2023-05-13T05:58:01;21.77;;;9.93;;
19519;SDS011;9904;52.246;20.898;2023-05-13T06:00:30;27.67;;;11.13;;
19519;SDS011;9904;52.246;20.898;2023-05-13T06:02:58;26.07;;;9.73;;
19519;SDS011;9904;52.246;20.898;2023-05-13T06:05:25;22.30;;;10.23;;
19519;SDS011;9904;52.246;20.898;2023-05-13T06:07:51;23.27;;;11.70;;
19519;SDS011;9904;52.246;20.898;2023-05-13T06:10:18;20.57;;;10.10;;
19519;SDS011;9904;52.246;20.898;2023-05-13T06:12:45;26.40;;;11.70;;
19519;SDS011;9904;52.246;20.898;2023-05-13T06:15:12;17.33;;;8.73;;
19519;SDS011;9904;52.246;20.898;2023-05-13T06:17:38;18.90;;;9.30;;
19519;SDS011;9904;52.246;20.898;2023-05-13T06:20:05;23.30;;;9.00;;
19519;SDS011;9904;52.246;20.898;2023-05-13T06:22:32;15.93;;;8.00;;
19519;SDS011;9904;52.246;20.898;2023-05-13T06:24:58;16.33;;;7.57;;
19519;SDS011;9904;52.246;20.898;2023-05-13T06:27:25;16.55;;;7.97;;
19519;SDS011;9904;52.246;20.898;2023-05-13T06:29:52;22.23;;;8.73;;
19519;SDS011;9904;52.246;20.898;2023-05-13T06:32:18;14.40;;;7.90;;
19519;SDS011;9904;52.246;20.898;2023-05-13T06:34:45;23.27;;;10.18;;
19519;SDS011;9904;52.246;20.898;2023-05-13T06:37:12;16.92;;;8.13;;
19519;SDS011;9904;52.246;20.898;2023-05-13T06:39:41;19.45;;;8.32;;
19519;SDS011;9904;52.246;20.898;2023-05-13T06:42:07;17.98;;;8.10;;
19519;SDS011;9904;52.246;20.898;2023-05-13T06:44:34;14.18;;;7.05;;
19519;SDS011;9904;52.246;20.898;2023-05-13T06:47:00;18.23;;;8.27;;
19519;SDS011;9904;52.246;20.898;2023-05-13T06:49:31;17.30;;;7.45;;
19519;SDS011;9904;52.246;20.898;2023-05-13T06:51:58;18.73;;;7.47;;
19519;SDS011;9904;52.246;20.898;2023-05-13T06:54:25;17.20;;;7.00;;
19519;SDS011;9904;52.246;20.898;2023-05-13T06:56:53;13.70;;;6.40;;
19519;SDS011;9904;52.246;20.898;2023-05-13T06:59:21;14.07;;;6.97;;
19519;SDS011;9904;52.246;20.898;2023-05-13T07:01:48;15.18;;;5.88;;
19519;SDS011;9904;52.246;20.898;2023-05-13T07:04:14;9.30;;;6.07;;
19519;SDS011;9904;52.246;20.898;2023-05-13T07:06:41;12.70;;;6.28;;
19519;SDS011;9904;52.246;20.898;2023-05-13T07:09:08;14.63;;;6.68;;
19519;SDS011;9904;52.246;20.898;2023-05-13T07:11:35;15.35;;;5.05;;
19519;SDS011;9904;52.246;20.898;2023-05-13T07:14:02;16.63;;;5.07;;
19519;SDS011;9904;52.246;20.898;2023-05-13T07:16:28;13.80;;;5.10;;
19519;SDS011;9904;52.246;20.898;2023-05-13T07:18:55;9.20;;;4.82;;
19519;SDS011;9904;52.246;20.898;2023-05-13T07:21:22;13.55;;;4.88;;
19519;SDS011;9904;52.246;20.898;2023-05-13T07:23:48;11.02;;;4.65;;
19519;SDS011;9904;52.246;20.898;2023-05-13T07:26:15;11.43;;;4.65;;
19519;SDS011;9904;52.246;20.898;2023-05-13T07:28:41;13.02;;;4.32;;
19519;SDS011;9904;52.246;20.898;2023-05-13T07:31:08;19.00;;;7.63;;
19519;SDS011;9904;52.246;20.898;2023-05-13T07:33:35;13.98;;;5.63;;
19519;SDS011;9904;52.246;20.898;2023-05-13T07:36:02;6.15;;;3.83;;
19519;SDS011;9904;52.246;20.898;2023-05-13T07:38:29;11.48;;;3.42;;
19519;SDS011;9904;52.246;20.898;2023-05-13T07:40:55;5.55;;;3.22;;
19519;SDS011;9904;52.246;20.898;2023-05-13T07:43:22;12.52;;;3.70;;
19519;SDS011;9904;52.246;20.898;2023-05-13T07:45:53;8.45;;;3.25;;
19519;SDS011;9904;52.246;20.898;2023-05-13T07:48:19;9.30;;;3.47;;
19519;SDS011;9904;52.246;20.898;2023-05-13T07:50:46;6.53;;;3.30;;
19519;SDS011;9904;52.246;20.898;2023-05-13T07:53:13;7.90;;;3.67;;
19519;SDS011;9904;52.246;20.898;2023-05-13T07:55:39;8.68;;;3.50;;
19519;SDS011;9904;52.246;20.898;2023-05-13T07:58:06;8.60;;;3.30;;
19519;SDS011;9904;52.246;20.898;2023-05-13T08:00:33;9.82;;;3.83;;
19519;SDS011;9904;52.246;20.898;2023-05-13T08:02:59;14.00;;;3.72;;
19519;SDS011;9904;52.246;20.898;2023-05-13T08:05:27;11.83;;;4.83;;
19519;SDS011;9904;52.246;20.898;2023-05-13T08:07:53;11.67;;;3.70;;
19519;SDS011;9904;52.246;20.898;2023-05-13T08:10:20;7.10;;;3.90;;
19519;SDS011;9904;52.246;20.898;2023-05-13T08:12:46;9.10;;;4.13;;
19519;SDS011;9904;52.246;20.898;2023-05-13T08:15:17;11.40;;;4.37;;
19519;SDS011;9904;52.246;20.898;2023-05-13T08:17:44;8.03;;;3.60;;
19519;SDS011;9904;52.246;20.898;2023-05-13T08:20:11;7.43;;;3.13;;
19519;SDS011;9904;52.246;20.898;2023-05-13T08:22:37;9.17;;;3.13;;
19519;SDS011;9904;52.246;20.898;2023-05-13T08:25:05;7.30;;;2.95;;
19519;SDS011;9904;52.246;20.898;2023-05-13T08:27:32;10.10;;;3.90;;
19519;SDS011;9904;52.246;20.898;2023-05-13T08:29:59;9.53;;;3.17;;
19519;SDS011;9904;52.246;20.898;2023-05-13T08:32:26;8.75;;;3.50;;
19519;SDS011;9904;52.246;20.898;2023-05-13T08:34:53;7.35;;;3.40;;
19519;SDS011;9904;52.246;20.898;2023-05-13T08:37:19;8.47;;;3.00;;
19519;SDS011;9904;52.246;20.898;2023-05-13T08:39:46;6.97;;;3.58;;
19519;SDS011;9904;52.246;20.898;2023-05-13T08:42:13;13.83;;;3.03;;
19519;SDS011;9904;52.246;20.898;2023-05-13T08:44:44;10.17;;;3.07;;
19519;SDS011;9904;52.246;20.898;2023-05-13T08:49:51;7.07;;;2.90;;
19519;SDS011;9904;52.246;20.898;2023-05-13T08:52:18;7.80;;;2.50;;
19519;SDS011;9904;52.246;20.898;2023-05-13T08:54:46;5.23;;;2.40;;
19519;SDS011;9904;52.246;20.898;2023-05-13T08:57:13;8.53;;;2.57;;
19519;SDS011;9904;52.246;20.898;2023-05-13T08:59:39;6.70;;;2.40;;
19519;SDS011;9904;52.246;20.898;2023-05-13T09:02:06;7.07;;;2.50;;
19519;SDS011;9904;52.246;20.898;2023-05-13T09:04:34;7.40;;;2.67;;
19519;SDS011;9904;52.246;20.898;2023-05-13T09:07:05;9.90;;;2.43;;
19519;SDS011;9904;52.246;20.898;2023-05-13T09:09:33;10.80;;;2.57;;
19519;SDS011;9904;52.246;20.898;2023-05-13T09:12:00;7.17;;;2.43;;
19519;SDS011;9904;52.246;20.898;2023-05-13T09:14:28;6.90;;;2.50;;
19519;SDS011;9904;52.246;20.898;2023-05-13T09:16:57;6.97;;;2.20;;
19519;SDS011;9904;52.246;20.898;2023-05-13T09:19:24;11.47;;;2.40;;
19519;SDS011;9904;52.246;20.898;2023-05-13T09:21:51;7.93;;;2.20;;
19519;SDS011;9904;52.246;20.898;2023-05-13T09:24:18;6.87;;;2.27;;
19519;SDS011;9904;52.246;20.898;2023-05-13T09:26:47;2.97;;;1.70;;
19519;SDS011;9904;52.246;20.898;2023-05-13T09:29:22;4.20;;;1.97;;
19519;SDS011;9904;52.246;20.898;2023-05-13T09:31:55;3.23;;;1.70;;
19519;SDS011;9904;52.246;20.898;2023-05-13T09:34:32;2.93;;;1.70;;
19519;SDS011;9904;52.246;20.898;2023-05-13T09:39:30;2.73;;;1.67;;
19519;SDS011;9904;52.246;20.898;2023-05-13T09:42:00;5.87;;;2.10;;
19519;SDS011;9904;52.246;20.898;2023-05-13T09:44:30;5.83;;;1.80;;
19519;SDS011;9904;52.246;20.898;2023-05-13T09:46:57;5.97;;;2.10;;
19519;SDS011;9904;52.246;20.898;2023-05-13T09:49:25;6.10;;;2.10;;
19519;SDS011;9904;52.246;20.898;2023-05-13T09:51:51;5.27;;;2.00;;
19519;SDS011;9904;52.246;20.898;2023-05-13T09:54:18;5.28;;;2.30;;
19519;SDS011;9904;52.246;20.898;2023-05-13T09:56:45;5.07;;;1.87;;
19519;SDS011;9904;52.246;20.898;2023-05-13T09:59:11;6.93;;;1.77;;
19519;SDS011;9904;52.246;20.898;2023-05-13T10:01:38;7.17;;;1.83;;
19519;SDS011;9904;52.246;20.898;2023-05-13T10:04:05;4.13;;;1.83;;
19519;SDS011;9904;52.246;20.898;2023-05-13T10:06:32;5.47;;;1.80;;
19519;SDS011;9904;52.246;20.898;2023-05-13T10:09:00;5.10;;;2.00;;
19519;SDS011;9904;52.246;20.898;2023-05-13T10:11:32;8.47;;;1.90;;
19519;SDS011;9904;52.246;20.898;2023-05-13T10:13:59;4.13;;;1.87;;
19519;SDS011;9904;52.246;20.898;2023-05-13T10:16:29;4.13;;;1.90;;
19519;SDS011;9904;52.246;20.898;2023-05-13T10:18:57;8.20;;;2.43;;
19519;SDS011;9904;52.246;20.898;2023-05-13T10:21:25;8.43;;;2.13;;
19519;SDS011;9904;52.246;20.898;2023-05-13T10:23:52;7.57;;;1.97;;
19519;SDS011;9904;52.246;20.898;2023-05-13T10:26:19;5.90;;;2.03;;
19519;SDS011;9904;52.246;20.898;2023-05-13T10:28:47;4.97;;;2.27;;
19519;SDS011;9904;52.246;20.898;2023-05-13T10:31:15;7.23;;;2.33;;
19519;SDS011;9904;52.246;20.898;2023-05-13T10:33:42;6.77;;;2.20;;
19519;SDS011;9904;52.246;20.898;2023-05-13T10:39:14;5.13;;;2.50;;
19519;SDS011;9904;52.246;20.898;2023-05-13T10:44:56;5.90;;;2.10;;
19519;SDS011;9904;52.246;20.898;2023-05-13T10:47:23;8.33;;;2.13;;
19519;SDS011;9904;52.246;20.898;2023-05-13T10:49:50;9.47;;;2.30;;
19519;SDS011;9904;52.246;20.898;2023-05-13T10:52:19;6.47;;;2.13;;
19519;SDS011;9904;52.246;20.898;2023-05-13T10:54:59;3.60;;;1.73;;
19519;SDS011;9904;52.246;20.898;2023-05-13T10:57:35;5.20;;;2.40;;
19519;SDS011;9904;52.246;20.898;2023-05-13T11:00:12;5.33;;;2.43;;
19519;SDS011;9904;52.246;20.898;2023-05-13T11:02:40;7.20;;;2.47;;
19519;SDS011;9904;52.246;20.898;2023-05-13T11:05:07;5.50;;;1.93;;
19519;SDS011;9904;52.246;20.898;2023-05-13T11:07:38;9.07;;;2.30;;
19519;SDS011;9904;52.246;20.898;2023-05-13T11:10:22;4.20;;;2.10;;
19519;SDS011;9904;52.246;20.898;2023-05-13T11:15:44;5.03;;;1.90;;
19519;SDS011;9904;52.246;20.898;2023-05-13T11:18:14;5.37;;;1.53;;
19519;SDS011;9904;52.246;20.898;2023-05-13T11:20:44;2.40;;;1.80;;
19519;SDS011;9904;52.246;20.898;2023-05-13T11:23:18;13.70;;;2.17;;
19519;SDS011;9904;52.246;20.898;2023-05-13T11:25:46;5.83;;;1.90;;
19519;SDS011;9904;52.246;20.898;2023-05-13T11:28:16;6.30;;;2.13;;
19519;SDS011;9904;52.246;20.898;2023-05-13T11:30:52;4.67;;;2.03;;
19519;SDS011;9904;52.246;20.898;2023-05-13T11:33:20;3.53;;;1.63;;
19519;SDS011;9904;52.246;20.898;2023-05-13T11:35:54;6.10;;;2.20;;
19519;SDS011;9904;52.246;20.898;2023-05-13T11:38:24;4.23;;;1.90;;
19519;SDS011;9904;52.246;20.898;2023-05-13T11:40:54;6.43;;;1.93;;
19519;SDS011;9904;52.246;20.898;2023-05-13T11:43:21;7.07;;;2.63;;
19519;SDS011;9904;52.246;20.898;2023-05-13T11:45:49;8.20;;;2.60;;
19519;SDS011;9904;52.246;20.898;2023-05-13T11:48:16;9.43;;;2.57;;
19519;SDS011;9904;52.246;20.898;2023-05-13T11:50:44;5.47;;;2.00;;
19519;SDS011;9904;52.246;20.898;2023-05-13T11:53:11;4.53;;;2.00;;
19519;SDS011;9904;52.246;20.898;2023-05-13T11:55:45;4.93;;;1.87;;
19519;SDS011;9904;52.246;20.898;2023-05-13T11:58:12;4.67;;;1.80;;
19519;SDS011;9904;52.246;20.898;2023-05-13T12:00:39;8.07;;;2.20;;
19519;SDS011;9904;52.246;20.898;2023-05-13T12:03:11;5.20;;;2.27;;
19519;SDS011;9904;52.246;20.898;2023-05-13T12:05:40;3.13;;;1.77;;
19519;SDS011;9904;52.246;20.898;2023-05-13T12:08:09;4.23;;;1.80;;
19519;SDS011;9904;52.246;20.898;2023-05-13T12:10:42;7.93;;;1.73;;
19519;SDS011;9904;52.246;20.898;2023-05-13T12:13:10;4.30;;;2.30;;
19519;SDS011;9904;52.246;20.898;2023-05-13T12:15:37;9.73;;;2.00;;
19519;SDS011;9904;52.246;20.898;2023-05-13T12:18:04;5.73;;;2.23;;
19519;SDS011;9904;52.246;20.898;2023-05-13T12:20:32;6.90;;;2.50;;
19519;SDS011;9904;52.246;20.898;2023-05-13T12:22:59;6.07;;;2.20;;
19519;SDS011;9904;52.246;20.898;2023-05-13T12:30:38;4.93;;;1.60;;
19519;SDS011;9904;52.246;20.898;2023-05-13T12:33:13;6.63;;;1.70;;
19519;SDS011;9904;52.246;20.898;2023-05-13T12:35:41;4.50;;;1.67;;
19519;SDS011;9904;52.246;20.898;2023-05-13T12:38:12;4.13;;;2.00;;
19519;SDS011;9904;52.246;20.898;2023-05-13T12:40:43;5.53;;;1.63;;
19519;SDS011;9904;52.246;20.898;2023-05-13T12:43:11;5.47;;;1.60;;
19519;SDS011;9904;52.246;20.898;2023-05-13T12:45:41;7.20;;;1.83;;
19519;SDS011;9904;52.246;20.898;2023-05-13T12:48:10;7.03;;;1.67;;
19519;SDS011;9904;52.246;20.898;2023-05-13T12:50:37;4.85;;;1.65;;
19519;SDS011;9904;52.246;20.898;2023-05-13T12:53:03;4.87;;;1.77;;
19519;SDS011;9904;52.246;20.898;2023-05-13T12:55:31;3.17;;;1.80;;
19519;SDS011;9904;52.246;20.898;2023-05-13T12:57:59;10.70;;;1.90;;
19519;SDS011;9904;52.246;20.898;2023-05-13T13:00:26;5.50;;;2.20;;
19519;SDS011;9904;52.246;20.898;2023-05-13T13:02:53;4.87;;;1.60;;
19519;SDS011;9904;52.246;20.898;2023-05-13T13:05:20;4.47;;;1.60;;
19519;SDS011;9904;52.246;20.898;2023-05-13T13:07:48;8.43;;;2.30;;
19519;SDS011;9904;52.246;20.898;2023-05-13T13:10:15;2.25;;;1.45;;
19519;SDS011;9904;52.246;20.898;2023-05-13T13:12:42;2.87;;;1.80;;
19519;SDS011;9904;52.246;20.898;2023-05-13T13:15:09;10.13;;;1.60;;
19519;SDS011;9904;52.246;20.898;2023-05-13T13:17:36;4.82;;;1.95;;
19519;SDS011;9904;52.246;20.898;2023-05-13T13:20:03;7.10;;;2.13;;
19519;SDS011;9904;52.246;20.898;2023-05-13T13:22:30;6.30;;;1.80;;
19519;SDS011;9904;52.246;20.898;2023-05-13T13:24:57;7.40;;;2.50;;
19519;SDS011;9904;52.246;20.898;2023-05-13T13:27:24;5.60;;;2.00;;
19519;SDS011;9904;52.246;20.898;2023-05-13T13:29:51;3.00;;;1.60;;
19519;SDS011;9904;52.246;20.898;2023-05-13T13:32:17;3.97;;;2.03;;
19519;SDS011;9904;52.246;20.898;2023-05-13T13:34:44;8.25;;;1.85;;
19519;SDS011;9904;52.246;20.898;2023-05-13T13:37:11;2.60;;;1.45;;
19519;SDS011;9904;52.246;20.898;2023-05-13T13:39:37;6.50;;;1.80;;
19519;SDS011;9904;52.246;20.898;2023-05-13T13:42:04;6.38;;;2.00;;
19519;SDS011;9904;52.246;20.898;2023-05-13T13:44:31;7.75;;;2.53;;
19519;SDS011;9904;52.246;20.898;2023-05-13T13:46:58;7.35;;;1.83;;
19519;SDS011;9904;52.246;20.898;2023-05-13T13:49:24;4.03;;;1.70;;
19519;SDS011;9904;52.246;20.898;2023-05-13T13:51:51;6.80;;;1.87;;
19519;SDS011;9904;52.246;20.898;2023-05-13T13:54:18;4.20;;;1.90;;
19519;SDS011;9904;52.246;20.898;2023-05-13T13:56:45;7.47;;;1.87;;
19519;SDS011;9904;52.246;20.898;2023-05-13T13:59:11;6.57;;;1.93;;
19519;SDS011;9904;52.246;20.898;2023-05-13T14:01:38;5.67;;;1.90;;
19519;SDS011;9904;52.246;20.898;2023-05-13T14:04:08;4.90;;;1.97;;
19519;SDS011;9904;52.246;20.898;2023-05-13T14:06:36;5.87;;;2.13;;
19519;SDS011;9904;52.246;20.898;2023-05-13T14:09:02;9.10;;;2.57;;
19519;SDS011;9904;52.246;20.898;2023-05-13T14:11:29;8.40;;;2.20;;
19519;SDS011;9904;52.246;20.898;2023-05-13T14:13:56;8.37;;;2.37;;
19519;SDS011;9904;52.246;20.898;2023-05-13T14:16:22;6.63;;;2.00;;
19519;SDS011;9904;52.246;20.898;2023-05-13T14:18:49;6.43;;;2.08;;
19519;SDS011;9904;52.246;20.898;2023-05-13T14:21:16;6.40;;;1.73;;
19519;SDS011;9904;52.246;20.898;2023-05-13T14:23:42;8.37;;;1.97;;
19519;SDS011;9904;52.246;20.898;2023-05-13T14:26:09;5.47;;;2.10;;
19519;SDS011;9904;52.246;20.898;2023-05-13T14:28:36;5.33;;;2.00;;
19519;SDS011;9904;52.246;20.898;2023-05-13T14:31:03;10.47;;;1.83;;
19519;SDS011;9904;52.246;20.898;2023-05-13T14:33:30;6.30;;;2.08;;
19519;SDS011;9904;52.246;20.898;2023-05-13T14:35:56;7.60;;;1.88;;
19519;SDS011;9904;52.246;20.898;2023-05-13T14:38:23;9.03;;;2.20;;
19519;SDS011;9904;52.246;20.898;2023-05-13T14:40:50;10.27;;;2.08;;
19519;SDS011;9904;52.246;20.898;2023-05-13T14:43:17;8.10;;;2.20;;
19519;SDS011;9904;52.246;20.898;2023-05-13T14:45:43;2.33;;;1.30;;
19519;SDS011;9904;52.246;20.898;2023-05-13T14:48:10;6.37;;;1.60;;
19519;SDS011;9904;52.246;20.898;2023-05-13T14:50:37;6.72;;;1.60;;
19519;SDS011;9904;52.246;20.898;2023-05-13T14:53:07;3.10;;;1.50;;
19519;SDS011;9904;52.246;20.898;2023-05-13T14:55:33;5.37;;;1.37;;
19519;SDS011;9904;52.246;20.898;2023-05-13T14:58:00;4.30;;;1.60;;
19519;SDS011;9904;52.246;20.898;2023-05-13T15:00:27;4.80;;;1.40;;
19519;SDS011;9904;52.246;20.898;2023-05-13T15:02:53;6.90;;;1.60;;